Time;durP1;ratioP1;P1;durP2;ratioP2;P2;SDS_P1;SDS_P2;PMS_P1;PMS_P2;Temp;Humidity;BMP_temperature;BMP_pressure;BME280_temperature;BME280_humidity;BME280_pressure;Samples;Min_cycle;Max_cycle;Signal;HPM_P1;HPM_P2
2023/10/15 00:00:37;;;;;;;13.90;9.30;;;;;;;10.68;100.00;97557.25;107183;1276;25284;-84
2023/10/15 00:03:25;;;;;;;13.40;9.10;;;;;;;10.65;100.00;97560.46;107156;1276;23271;-84
2023/10/15 00:05:54;;;;;;;12.20;8.50;;;;;;;10.63;100.00;97558.61;107215;1276;24199;-85
2023/10/15 00:08:22;;;;;;;15.80;8.90;;;;;;;10.63;100.00;97558.08;106899;1274;25393;-84
2023/10/15 00:10:50;;;;;;;13.10;7.90;;;;;;;10.62;100.00;97555.09;107234;1276;25343;-83
2023/10/15 00:13:18;;;;;;;15.80;8.70;;;;;;;10.60;100.00;97553.46;107177;1276;22535;-84
2023/10/15 00:15:46;;;;;;;13.80;8.70;;;;;;;10.58;100.00;97562.14;107316;1276;23369;-85
2023/10/15 00:18:14;;;;;;;12.80;8.50;;;;;;;10.57;100.00;97567.02;107237;1276;22615;-84
2023/10/15 00:20:42;;;;;;;11.90;9.20;;;;;;;10.56;100.00;97571.08;107188;1275;22545;-85
2023/10/15 00:23:13;;;;;;;11.40;8.50;;;;;;;10.55;100.00;97569.50;106932;1272;22531;-85
2023/10/15 00:25:47;;;;;;;14.60;8.60;;;;;;;10.52;100.00;97568.36;107245;1276;25857;-84
2023/10/15 00:28:16;;;;;;;;;;;;;;;10.52;100.00;97557.91;106982;1276;25334;-84
2023/10/15 00:30:44;;;;;;;12.80;9.10;;;;;;;10.52;100.00;97549.83;106963;1276;25281;-85
2023/10/15 00:33:12;;;;;;;14.50;9.30;;;;;;;10.50;100.00;97538.70;107017;1276;22597;-84
2023/10/15 00:35:44;;;;;;;13.50;8.90;;;;;;;10.50;100.00;97531.52;107066;1276;24264;-85
2023/10/15 00:38:17;;;;;;;13.70;9.30;;;;;;;10.49;100.00;97537.51;106965;1276;24217;-85
2023/10/15 00:40:53;;;;;;;11.30;8.30;;;;;;;10.49;100.00;97534.70;107206;1276;22582;-85
2023/10/15 00:43:21;;;;;;;14.80;9.30;;;;;;;10.51;100.00;97540.06;107167;1270;22906;-85
2023/10/15 00:45:51;;;;;;;14.50;8.80;;;;;;;10.51;100.00;97545.66;107120;1270;22554;-84
2023/10/15 00:48:36;;;;;;;12.70;8.10;;;;;;;10.51;100.00;97551.82;107176;1276;22536;-85
2023/10/15 00:51:11;;;;;;;13.30;8.50;;;;;;;10.51;100.00;97559.62;107178;1266;22542;-86
2023/10/15 00:53:54;;;;;;;14.80;8.60;;;;;;;10.52;100.00;97558.31;107204;1276;22582;-85
2023/10/15 00:56:33;;;;;;;10.70;7.80;;;;;;;10.54;100.00;97565.91;107087;1276;25275;-85
2023/10/15 01:01:39;;;;;;;17.60;8.80;;;;;;;10.46;100.00;97565.27;109236;1276;22561;-84
2023/10/15 01:04:10;;;;;;;10.70;7.30;;;;;;;10.43;100.00;97563.27;107216;1276;23336;-84
2023/10/15 01:06:43;;;;;;;17.40;9.20;;;;;;;10.40;100.00;97552.92;107226;1276;23460;-85
2023/10/15 01:12:24;;;;;;;12.60;8.10;;;;;;;10.37;100.00;97551.55;107053;1276;24205;-84
2023/10/15 01:14:52;;;;;;;12.30;7.90;;;;;;;10.33;100.00;97540.86;107173;1276;24295;-84
2023/10/15 01:17:23;;;;;;;14.10;8.10;;;;;;;10.29;100.00;97528.14;107197;1273;24226;-84
2023/10/15 01:19:52;;;;;;;13.70;8.00;;;;;;;10.25;100.00;97521.09;107052;1273;22536;-84
2023/10/15 01:22:23;;;;;;;13.80;8.10;;;;;;;10.24;100.00;97529.73;107213;1276;23390;-84
2023/10/15 01:24:55;;;;;;;14.70;7.40;;;;;;;10.24;100.00;97533.45;107258;1276;22524;-84
2023/10/15 01:27:30;;;;;;;10.80;7.90;;;;;;;10.26;100.00;97541.22;107221;1276;22619;-84
2023/10/15 01:29:59;;;;;;;13.80;8.80;;;;;;;10.23;100.00;97546.98;107173;1270;22919;-84
2023/10/15 01:32:31;;;;;;;15.40;8.20;;;;;;;10.18;100.00;97540.64;106918;1274;22552;-84
2023/10/15 01:35:01;;;;;;;14.80;7.70;;;;;;;10.15;100.00;97530.95;107100;1276;22527;-84
2023/10/15 01:37:30;;;;;;;10.60;6.90;;;;;;;10.13;100.00;97515.30;106805;1276;24104;-84
2023/10/15 01:40:24;;;;;;;12.20;7.30;;;;;;;10.11;100.00;97522.40;107098;1270;22549;-84
2023/10/15 01:42:54;;;;;;;14.30;7.50;;;;;;;10.07;100.00;97521.20;107070;1276;22770;-84
2023/10/15 01:45:31;;;;;;;12.90;7.10;;;;;;;10.00;100.00;97519.68;107052;1267;22530;-85
2023/10/15 01:50:40;;;;;;;16.80;7.60;;;;;;;9.91;100.00;97530.38;106956;1273;24243;-85
2023/10/15 01:53:08;;;;;;;16.70;8.10;;;;;;;9.88;100.00;97532.91;107006;1273;22532;-86
2023/10/15 01:55:36;;;;;;;15.60;7.40;;;;;;;9.84;100.00;97536.60;106950;1270;22989;-85
2023/10/15 01:58:06;;;;;;;12.70;7.10;;;;;;;9.79;100.00;97544.13;107119;1276;22562;-85
2023/10/15 02:00:43;;;;;;;12.80;6.30;;;;;;;9.75;100.00;97542.67;106890;1276;24509;-84
2023/10/15 02:03:12;;;;;;;12.70;6.00;;;;;;;9.72;100.00;97543.58;107260;1270;25353;-83
2023/10/15 02:05:41;;;;;;;12.90;7.00;;;;;;;9.72;100.00;97536.36;107217;1271;25398;-84
2023/10/15 02:08:14;;;;;;;11.00;6.20;;;;;;;9.70;100.00;97538.95;107148;1276;23132;-84
2023/10/15 02:10:46;;;;;;;16.90;7.20;;;;;;;9.64;100.00;97539.34;106966;1276;22532;-84
2023/10/15 02:13:19;;;;;;;15.10;7.40;;;;;;;9.57;100.00;97547.06;107236;1276;25478;-84
2023/10/15 02:15:58;;;;;;;12.00;6.60;;;;;;;9.54;100.00;97537.89;107124;1276;22524;-84
2023/10/15 02:18:31;;;;;;;15.30;6.40;;;;;;;9.48;100.00;97512.39;107127;1275;24432;-84
2023/10/15 02:23:27;;;;;;;11.70;6.40;;;;;;;9.41;100.00;97535.25;107171;1276;25331;-85
2023/10/15 02:25:58;;;;;;;13.10;6.80;;;;;;;9.36;100.00;97540.19;107529;1273;25472;-84
2023/10/15 02:28:31;;;;;;;14.60;6.60;;;;;;;9.30;100.00;97519.12;107407;1270;25856;-85
2023/10/15 02:33:32;;;;;;;16.20;5.60;;;;;;;9.24;100.00;97536.86;107170;1276;24448;-84
2023/10/15 02:36:04;;;;;;;12.00;6.20;;;;;;;9.24;100.00;97535.20;107048;1276;25382;-84
2023/10/15 02:38:36;;;;;;;12.90;5.90;;;;;;;9.22;100.00;97550.50;107185;1270;25300;-84
2023/10/15 02:41:06;;;;;;;16.20;7.10;;;;;;;9.19;100.00;97544.77;107203;1276;22535;-84
2023/10/15 02:43:36;;;;;;;15.60;5.90;;;;;;;9.12;100.00;97533.39;107224;1276;22547;-85
2023/10/15 02:46:22;;;;;;;15.70;6.80;;;;;;;9.06;100.00;97534.77;107062;1276;22909;-85
2023/10/15 02:48:55;;;;;;;12.10;6.10;;;;;;;9.02;100.00;97519.53;107189;1276;22530;-83
2023/10/15 02:51:23;;;;;;;14.20;6.80;;;;;;;9.00;100.00;97520.11;107089;1254;25236;-84
2023/10/15 02:53:54;;;;;;;13.20;6.50;;;;;;;8.97;100.00;97533.23;107933;1276;22551;-83
2023/10/15 02:56:22;;;;;;;13.10;6.30;;;;;;;8.92;100.00;97540.90;108585;1273;24230;-83
2023/10/15 02:58:54;;;;;;;16.20;6.40;;;;;;;8.89;100.00;97545.02;107058;1276;24259;-84
2023/10/15 03:01:23;;;;;;;15.70;6.30;;;;;;;8.87;100.00;97528.73;107117;1270;24072;-84
2023/10/15 03:03:54;;;;;;;10.20;5.30;;;;;;;8.87;100.00;97508.69;107147;1276;22535;-83
2023/10/15 03:06:34;;;;;;;18.20;7.00;;;;;;;8.82;100.00;97528.40;107027;1275;26142;-84
2023/10/15 03:09:11;;;;;;;14.50;6.40;;;;;;;8.78;100.00;97559.79;107096;1270;22538;-84
2023/10/15 03:11:46;;;;;;;13.90;5.60;;;;;;;8.77;100.00;97550.61;107023;1276;24246;-84
2023/10/15 03:14:16;;;;;;;13.00;6.20;;;;;;;8.73;100.00;97548.01;107107;1276;25335;-85
2023/10/15 03:16:44;;;;;;;13.60;6.20;;;;;;;8.71;100.00;97558.67;107123;1273;25331;-85
2023/10/15 03:19:19;;;;;;;13.70;6.40;;;;;;;8.69;100.00;97581.76;107078;1270;23109;-85
2023/10/15 03:21:47;;;;;;;11.90;6.00;;;;;;;8.68;100.00;97577.63;107176;1276;22642;-84
2023/10/15 03:24:17;;;;;;;15.60;6.10;;;;;;;8.64;100.00;97572.27;107251;1276;22637;-85
2023/10/15 03:26:49;;;;;;;13.50;5.10;;;;;;;8.62;100.00;97571.83;107019;1272;23486;-85
2023/10/15 03:29:21;;;;;;;12.60;6.10;;;;;;;8.60;100.00;97560.73;107053;1276;22596;-85
2023/10/15 03:32:02;;;;;;;11.40;6.10;;;;;;;8.56;100.00;97566.05;107126;1276;24199;-87
2023/10/15 03:34:35;;;;;;;10.00;5.30;;;;;;;8.55;100.00;97570.86;108728;1269;22779;-86
2023/10/15 03:37:05;;;;;;;13.10;5.90;;;;;;;8.53;100.00;97579.15;109981;1276;22507;-86
2023/10/15 03:42:17;;;;;;;10.20;5.30;;;;;;;8.50;100.00;97579.54;110056;1269;23887;-86
2023/10/15 03:44:47;;;;;;;12.20;6.20;;;;;;;8.47;100.00;97575.88;107046;1276;23181;-83
2023/10/15 03:47:22;;;;;;;11.20;6.20;;;;;;;8.42;100.00;97561.45;107170;1276;22531;-84
2023/10/15 03:49:55;;;;;;;12.40;5.80;;;;;;;8.37;100.00;97562.14;107233;1276;22740;-84
2023/10/15 03:52:26;;;;;;;8.20;5.50;;;;;;;8.33;100.00;97576.44;106947;1276;25530;-84
2023/10/15 03:54:55;;;;;;;12.00;5.10;;;;;;;8.30;100.00;97584.85;106904;1275;25546;-84
2023/10/15 03:57:28;;;;;;;15.20;5.70;;;;;;;8.25;100.00;97579.41;107086;1269;22538;-85
2023/10/15 03:59:56;;;;;;;13.50;5.60;;;;;;;8.20;100.00;97576.14;107036;1254;22528;-85
2023/10/15 04:02:38;;;;;;;11.90;5.30;;;;;;;8.16;100.00;97588.00;107172;1273;24215;-85
2023/10/15 04:05:12;;;;;;;10.40;5.50;;;;;;;8.14;100.00;97590.41;107201;1273;27758;-85
2023/10/15 04:07:46;;;;;;;9.70;5.10;;;;;;;8.10;100.00;97585.57;107155;1276;22538;-85
2023/10/15 04:10:15;;;;;;;;;;;;;;;8.02;100.00;97583.80;106999;1276;25374;-84
2023/10/15 04:12:50;;;;;;;12.10;5.40;;;;;;;7.96;100.00;97587.95;107045;1273;22587;-85
2023/10/15 04:15:18;;;;;;;12.70;5.80;;;;;;;7.93;100.00;97595.29;106956;1272;22517;-85
2023/10/15 04:17:48;;;;;;;11.10;5.70;;;;;;;7.90;100.00;97593.30;107182;1270;22672;-85
2023/10/15 04:20:35;;;;;;;11.80;6.60;;;;;;;7.85;100.00;97594.45;107186;1270;22565;-84
2023/10/15 04:23:04;;;;;;;9.40;5.20;;;;;;;7.74;100.00;97597.25;107169;1276;25242;-84
2023/10/15 04:25:32;;;;;;;11.40;5.20;;;;;;;7.71;100.00;97597.44;106955;1270;22790;-85
2023/10/15 04:28:11;;;;;;;11.80;5.90;;;;;;;7.66;100.00;97596.17;107181;1269;22542;-86
2023/10/15 04:30:40;;;;;;;16.10;6.10;;;;;;;7.62;100.00;97599.76;107118;1275;22652;-84
2023/10/15 04:33:10;;;;;;;9.30;5.20;;;;;;;7.54;100.00;97602.22;107143;1276;22586;-85
2023/10/15 04:35:42;;;;;;;9.10;4.80;;;;;;;7.48;100.00;97607.86;107113;1276;23360;-86
2023/10/15 04:38:21;;;;;;;9.00;4.80;;;;;;;7.48;100.00;97607.80;107188;1276;23327;-84
2023/10/15 04:43:24;;;;;;;14.50;5.60;;;;;;;7.41;100.00;97621.55;107151;1270;22577;-84
2023/10/15 04:45:56;;;;;;;11.30;5.00;;;;;;;7.36;100.00;97622.89;107250;1276;22551;-84
2023/10/15 04:48:32;;;;;;;11.00;5.10;;;;;;;7.32;100.00;97626.05;107857;1271;22602;-85
2023/10/15 04:51:13;;;;;;;10.90;5.00;;;;;;;7.31;100.00;97622.80;108531;1276;22565;-84
2023/10/15 04:53:44;;;;;;;12.80;5.60;;;;;;;7.29;100.00;97628.29;107190;1276;23882;-85
2023/10/15 04:56:12;;;;;;;10.90;5.60;;;;;;;7.22;100.00;97625.07;107147;1276;22655;-85
2023/10/15 04:58:40;;;;;;;13.00;5.20;;;;;;;7.18;100.00;97622.27;107189;1269;22531;-85
2023/10/15 05:01:11;;;;;;;11.30;6.10;;;;;;;7.16;100.00;97622.98;107207;1276;22909;-85
2023/10/15 05:03:39;;;;;;;10.20;5.50;;;;;;;7.12;100.00;97618.37;107104;1276;22638;-85
2023/10/15 05:06:10;;;;;;;10.60;5.30;;;;;;;7.08;100.00;97618.83;107095;1276;22731;-85
2023/10/15 05:08:40;;;;;;;8.20;4.50;;;;;;;7.04;100.00;97624.27;107062;1271;23880;-85
2023/10/15 05:11:09;;;;;;;9.60;6.10;;;;;;;7.00;100.00;97629.20;107215;1276;22541;-85
2023/10/15 05:13:37;;;;;;;7.90;5.10;;;;;;;6.98;100.00;97628.46;107297;1276;22560;-86
2023/10/15 05:16:06;;;;;;;11.80;5.80;;;;;;;6.95;100.00;97623.98;107272;1275;22592;-85
2023/10/15 05:18:34;;;;;;;10.40;5.60;;;;;;;6.92;100.00;97631.84;107199;1270;22529;-85
2023/10/15 05:21:02;;;;;;;10.30;5.80;;;;;;;6.89;100.00;97635.01;107028;1276;22530;-85
2023/10/15 05:23:30;;;;;;;11.50;6.10;;;;;;;6.85;100.00;97638.48;107213;1276;25272;-85
2023/10/15 05:25:58;;;;;;;10.20;4.90;;;;;;;6.83;100.00;97635.45;107163;1276;25293;-85
2023/10/15 05:28:26;;;;;;;9.90;5.00;;;;;;;6.80;100.00;97632.98;107132;1269;23030;-85
2023/10/15 05:30:57;;;;;;;10.40;4.90;;;;;;;6.76;100.00;97634.80;107130;1269;24381;-85
2023/10/15 05:33:27;;;;;;;14.50;5.70;;;;;;;6.73;100.00;97633.64;107208;1254;23929;-86
2023/10/15 05:35:56;;;;;;;12.00;5.70;;;;;;;6.68;100.00;97627.85;107178;1270;22547;-86
2023/10/15 05:38:27;;;;;;;11.80;6.40;;;;;;;6.64;100.00;97627.56;107232;1269;24360;-86
2023/10/15 05:40:57;;;;;;;14.10;6.80;;;;;;;6.63;100.00;97626.54;107073;1270;22530;-86
2023/10/15 05:43:26;;;;;;;21.50;6.60;;;;;;;6.62;100.00;97625.48;107179;1270;22567;-85
2023/10/15 05:45:54;;;;;;;17.00;6.20;;;;;;;6.62;100.00;97625.39;107206;1269;23448;-86
2023/10/15 05:48:22;;;;;;;14.30;5.80;;;;;;;6.63;100.00;97628.96;107314;1276;24390;-85
2023/10/15 05:50:51;;;;;;;14.30;5.70;;;;;;;6.60;100.00;97630.00;107417;1270;24279;-86
2023/10/15 05:53:19;;;;;;;19.50;6.90;;;;;;;6.60;100.00;97633.59;107832;1276;25549;-85
2023/10/15 05:55:47;;;;;;;14.20;6.80;;;;;;;6.62;100.00;97636.30;107698;1269;22733;-86
2023/10/15 05:58:15;;;;;;;14.20;5.90;;;;;;;6.66;100.00;97638.36;107843;1269;22620;-85
2023/10/15 06:00:43;;;;;;;14.80;6.40;;;;;;;6.68;100.00;97645.68;107610;1276;22756;-86
2023/10/15 06:03:11;;;;;;;12.10;5.60;;;;;;;6.67;100.00;97646.88;107340;1276;22770;-85
2023/10/15 06:05:40;;;;;;;12.20;5.50;;;;;;;6.71;100.00;97649.66;106997;1276;25390;-83
2023/10/15 06:08:08;;;;;;;10.60;4.80;;;;;;;6.80;100.00;97657.16;107108;1276;23905;-85
2023/10/15 06:10:36;;;;;;;11.60;5.50;;;;;;;6.87;100.00;97662.04;106945;1276;25485;-85
2023/10/15 06:13:04;;;;;;;11.90;5.80;;;;;;;6.91;100.00;97664.67;107154;1276;22960;-85
2023/10/15 06:15:34;;;;;;;13.90;5.90;;;;;;;6.96;100.00;97670.96;107027;1276;25544;-85
2023/10/15 06:18:02;;;;;;;13.10;5.90;;;;;;;7.03;100.00;97673.90;106954;1276;23391;-87
2023/10/15 06:20:30;;;;;;;12.20;5.40;;;;;;;7.09;100.00;97676.15;107172;1276;23326;-87
2023/10/15 06:23:03;;;;;;;14.30;6.40;;;;;;;7.15;100.00;97677.02;107053;1276;23333;-86
2023/10/15 06:25:32;;;;;;;12.70;5.50;;;;;;;7.20;100.00;97680.87;107142;1277;25484;-87
2023/10/15 06:28:01;;;;;;;10.30;5.40;;;;;;;7.25;100.00;97682.88;107248;1276;24225;-85
2023/10/15 06:30:29;;;;;;;12.60;5.10;;;;;;;7.31;100.00;97690.75;107247;1276;24129;-85
2023/10/15 06:32:57;;;;;;;12.20;6.10;;;;;;;7.36;100.00;97691.61;107368;1270;22592;-85
2023/10/15 06:35:26;;;;;;;10.00;5.90;;;;;;;7.43;100.00;97694.81;107250;1276;22591;-85
2023/10/15 06:37:58;;;;;;;9.00;5.30;;;;;;;7.46;99.99;97693.48;106985;1276;22925;-86
2023/10/15 06:40:28;;;;;;;11.00;5.20;;;;;;;7.47;99.66;97697.30;107185;1257;23432;-84
2023/10/15 06:43:03;;;;;;;11.20;6.00;;;;;;;7.45;100.00;97697.59;107227;1276;22657;-86
2023/10/15 06:45:34;;;;;;;13.20;6.30;;;;;;;7.47;100.00;97698.27;108434;1272;22577;-84
2023/10/15 06:48:02;;;;;;;10.80;5.50;;;;;;;7.51;99.92;97702.84;107463;1276;22543;-86
2023/10/15 06:50:32;;;;;;;9.40;4.70;;;;;;;7.50;99.42;97704.19;107242;1276;24347;-87
2023/10/15 06:53:01;;;;;;;12.20;5.10;;;;;;;7.49;99.00;97706.23;107341;1269;22530;-85
2023/10/15 06:55:31;;;;;;;9.70;5.90;;;;;;;7.49;99.16;97708.44;107104;1276;22688;-85
2023/10/15 06:58:01;;;;;;;12.40;5.60;;;;;;;7.54;98.98;97709.89;107086;1276;22541;-86
2023/10/15 07:00:31;;;;;;;12.30;5.80;;;;;;;7.60;99.00;97709.02;107075;1273;24383;-85
2023/10/15 07:03:00;;;;;;;10.10;4.70;;;;;;;7.61;98.27;97710.30;107216;1276;25564;-85
2023/10/15 07:05:28;;;;;;;10.10;5.10;;;;;;;7.63;97.85;97711.26;107043;1276;22548;-84
2023/10/15 07:07:56;;;;;;;13.30;6.50;;;;;;;7.72;98.37;97715.55;107048;1275;22651;-84
2023/10/15 07:10:25;;;;;;;10.70;5.30;;;;;;;7.81;98.08;97718.36;107071;1276;22536;-85
2023/10/15 07:12:54;;;;;;;10.50;5.30;;;;;;;7.86;97.62;97722.76;107122;1276;22544;-84
2023/10/15 07:15:24;;;;;;;10.70;5.40;;;;;;;7.93;96.53;97722.08;107096;1270;24202;-86
2023/10/15 07:17:53;;;;;;;9.10;5.10;;;;;;;8.01;94.82;97727.31;107017;1272;22569;-85
2023/10/15 07:20:26;;;;;;;12.10;5.60;;;;;;;8.07;94.04;97727.18;107333;1269;24423;-84
2023/10/15 07:22:59;;;;;;;11.60;5.30;;;;;;;8.17;92.85;97727.93;107198;1259;22573;-83
2023/10/15 07:25:28;;;;;;;13.30;5.50;;;;;;;8.21;92.45;97723.38;107224;1276;22607;-86
2023/10/15 07:27:57;;;;;;;13.80;5.90;;;;;;;8.33;93.92;97726.77;109427;1271;22177;-84
2023/10/15 07:30:26;;;;;;;10.60;5.40;;;;;;;8.45;93.12;97729.27;109355;1269;22566;-84
2023/10/15 07:32:57;;;;;;;10.20;5.30;;;;;;;8.51;91.36;97734.20;109587;1269;22580;-84
2023/10/15 07:35:29;;;;;;;9.70;5.10;;;;;;;8.50;90.95;97735.17;109098;1273;22768;-84
2023/10/15 07:37:58;;;;;;;10.60;4.90;;;;;;;8.47;90.42;97738.65;107302;1276;24241;-84
2023/10/15 07:40:26;;;;;;;11.10;4.40;;;;;;;8.49;90.75;97736.31;107257;1276;24526;-84
2023/10/15 07:42:59;;;;;;;9.40;5.40;;;;;;;8.50;89.03;97737.26;107125;1276;22605;-84
2023/10/15 07:45:30;;;;;;;9.80;4.80;;;;;;;8.56;89.65;97735.19;107203;1269;25412;-85
2023/10/15 07:48:01;;;;;;;10.30;5.20;;;;;;;8.60;88.74;97730.57;107467;1274;22520;-85
2023/10/15 07:50:34;;;;;;;12.00;6.20;;;;;;;8.65;87.80;97727.71;107189;1272;22600;-84
2023/10/15 07:53:03;;;;;;;12.30;5.50;;;;;;;8.73;87.30;97728.63;107327;1254;22543;-84
2023/10/15 07:55:33;;;;;;;11.60;5.70;;;;;;;8.85;86.03;97733.98;107274;1257;24219;-84
2023/10/15 07:58:01;;;;;;;11.00;5.00;;;;;;;8.90;85.16;97728.38;107236;1276;26620;-84
2023/10/15 08:00:30;;;;;;;11.40;4.70;;;;;;;8.88;83.15;97732.05;107153;1276;22610;-84
2023/10/15 08:03:00;;;;;;;12.00;4.70;;;;;;;8.90;82.06;97734.02;107126;1275;24060;-84
2023/10/15 08:05:31;;;;;;;11.00;4.60;;;;;;;8.88;81.60;97731.75;107204;1269;26532;-84
2023/10/15 08:08:03;;;;;;;11.10;4.50;;;;;;;8.87;80.79;97727.92;107131;1269;25482;-85
2023/10/15 08:10:34;;;;;;;10.50;5.00;;;;;;;8.93;81.56;97731.11;107081;1276;25667;-85
2023/10/15 08:13:08;;;;;;;9.70;4.90;;;;;;;9.03;82.14;97730.20;107099;1269;24334;-85
2023/10/15 08:15:38;;;;;;;10.60;4.50;;;;;;;9.12;81.37;97731.02;107169;1269;22512;-86
2023/10/15 08:18:07;;;;;;;9.60;4.20;;;;;;;9.08;79.49;97730.56;107125;1276;24182;-86
2023/10/15 08:20:35;;;;;;;11.50;4.70;;;;;;;9.05;77.28;97742.61;107075;1276;22551;-87
2023/10/15 08:23:53;;;;;;;13.90;4.60;;;;;;;9.07;78.48;97737.86;107488;1276;22605;-88
2023/10/15 08:26:21;;;;;;;8.20;4.20;;;;;;;9.18;76.97;97737.52;107150;1276;22544;-86
2023/10/15 08:28:49;;;;;;;9.40;4.90;;;;;;;9.25;75.90;97739.11;107159;1276;24597;-86
2023/10/15 08:31:17;;;;;;;12.20;4.50;;;;;;;9.34;75.56;97735.32;107173;1276;23360;-87
2023/10/15 08:33:45;;;;;;;9.10;4.40;;;;;;;9.45;77.06;97735.51;107000;1276;25246;-86
2023/10/15 08:36:18;;;;;;;12.40;4.80;;;;;;;9.58;76.44;97739.80;107077;1276;22561;-86
2023/10/15 08:38:49;;;;;;;9.60;4.90;;;;;;;9.58;73.88;97739.98;107214;1269;24316;-86
2023/10/15 08:41:21;;;;;;;9.40;4.80;;;;;;;9.55;75.26;97738.25;107492;1254;22633;-82
2023/10/15 08:43:51;;;;;;;9.80;4.10;;;;;;;9.55;73.52;97741.22;109771;1269;25414;-83
2023/10/15 08:46:23;;;;;;;12.00;4.80;;;;;;;9.53;75.28;97740.00;107385;1269;22531;-86
2023/10/15 08:48:52;;;;;;;10.90;4.00;;;;;;;9.61;75.18;97743.10;107158;1276;23077;-85
2023/10/15 08:51:21;;;;;;;13.50;4.90;;;;;;;9.65;72.70;97743.02;107169;1272;22560;-85
2023/10/15 08:53:50;;;;;;;10.40;4.50;;;;;;;9.60;71.77;97739.89;107271;1252;25271;-87
2023/10/15 08:56:25;;;;;;;9.50;4.20;;;;;;;9.69;70.84;97744.25;107219;1269;24259;-86
2023/10/15 08:58:54;;;;;;;;;;;;;;;9.72;70.21;97748.02;107259;1269;25599;-85
2023/10/15 09:01:23;;;;;;;9.80;4.50;;;;;;;9.69;68.96;97751.14;107237;1270;25344;-84
2023/10/15 09:03:54;;;;;;;10.50;5.00;;;;;;;9.71;68.45;97750.36;107106;1270;25396;-85
2023/10/15 09:06:23;;;;;;;9.60;4.00;;;;;;;9.73;68.94;97747.18;107159;1276;25399;-84
2023/10/15 09:08:51;;;;;;;10.20;5.30;;;;;;;9.78;69.97;97746.23;106943;1276;24206;-86
2023/10/15 09:11:19;;;;;;;10.40;4.70;;;;;;;9.83;68.87;97744.17;106976;1272;24340;-86
2023/10/15 09:13:52;;;;;;;9.40;4.70;;;;;;;9.78;68.05;97747.85;107185;1276;22533;-86
2023/10/15 09:16:21;;;;;;;10.30;4.40;;;;;;;9.69;67.39;97749.35;107132;1276;22624;-86
2023/10/15 09:18:51;;;;;;;8.80;3.90;;;;;;;9.62;68.67;97741.57;106940;1276;23882;-87
2023/10/15 09:21:23;;;;;;;10.50;3.90;;;;;;;9.63;68.95;97741.29;106916;1275;23876;-85
2023/10/15 09:23:52;;;;;;;11.40;4.60;;;;;;;9.69;69.20;97742.80;107393;1270;22520;-85
2023/10/15 09:26:20;;;;;;;9.40;4.30;;;;;;;9.70;68.09;97739.12;107173;1270;22632;-88
2023/10/15 09:28:51;;;;;;;10.60;4.80;;;;;;;9.75;68.13;97742.20;107128;1276;22577;-87
2023/10/15 09:31:20;;;;;;;8.20;3.90;;;;;;;9.74;67.52;97737.27;107194;1273;22770;-88
2023/10/15 09:33:52;;;;;;;9.10;4.70;;;;;;;9.76;68.10;97740.41;107226;1276;22568;-87
2023/10/15 09:36:23;;;;;;;11.50;4.80;;;;;;;9.87;68.90;97736.38;107184;1276;25389;-88
2023/10/15 09:38:54;;;;;;;9.20;4.50;;;;;;;10.06;67.40;97736.06;107078;1276;25396;-87
2023/10/15 09:41:25;;;;;;;9.70;5.10;;;;;;;10.16;66.71;97731.46;107197;1269;22542;-87
2023/10/15 09:43:57;;;;;;;11.90;5.10;;;;;;;10.20;66.78;97731.16;107167;1277;22556;-86
2023/10/15 09:46:26;;;;;;;8.70;4.20;;;;;;;10.18;65.42;97726.42;107081;1266;211179;-87
2023/10/15 09:48:57;;;;;;;11.00;4.50;;;;;;;10.06;65.61;97731.02;107284;1277;22640;-88
2023/10/15 09:51:26;;;;;;;13.10;5.70;;;;;;;9.94;64.52;97724.15;107170;1272;25648;-86
2023/10/15 09:53:56;;;;;;;13.20;7.80;;;;;;;9.80;64.71;97727.52;107076;1276;22549;-87
2023/10/15 09:56:24;;;;;;;17.40;15.50;;;;;;;9.67;63.86;97732.17;107359;1272;22543;-87
2023/10/15 09:58:53;;;;;;;13.40;8.60;;;;;;;9.60;63.60;97725.63;107359;1269;24209;-87
2023/10/15 10:01:26;;;;;;;9.40;5.80;;;;;;;9.56;64.25;97722.52;107243;1276;22493;-87
2023/10/15 10:04:43;;;;;;;12.10;5.60;;;;;;;9.54;63.54;97725.10;107232;1269;22649;-88
2023/10/15 10:07:38;;;;;;;10.40;4.20;;;;;;;9.54;64.64;97719.27;106769;1273;22576;-87
2023/10/15 10:10:31;;;;;;;10.80;5.10;;;;;;;9.56;64.66;97717.02;107148;1276;25338;-88
2023/10/15 10:13:26;;;;;;;13.30;7.60;;;;;;;9.57;64.14;97713.68;107197;1276;24282;-91
2023/10/15 10:15:58;;;;;;;11.60;7.10;;;;;;;9.63;64.94;97711.21;107207;1276;22652;-88
2023/10/15 10:18:33;;;;;;;9.60;5.60;;;;;;;9.68;65.35;97711.13;107237;1276;25582;-86
2023/10/15 10:21:11;;;;;;;9.10;4.20;;;;;;;9.71;64.11;97709.49;106945;1277;24429;-87
2023/10/15 10:23:40;;;;;;;9.50;5.10;;;;;;;9.72;63.06;97708.09;107170;1276;24249;-87
2023/10/15 10:26:18;;;;;;;11.80;4.60;;;;;;;9.67;62.03;97705.55;107247;1277;25369;-88
2023/10/15 10:28:47;;;;;;;10.50;6.10;;;;;;;9.63;62.37;97705.17;107232;1276;22533;-87
2023/10/15 10:31:16;;;;;;;11.00;4.80;;;;;;;9.65;62.94;97702.36;107180;1276;26707;-87
2023/10/15 10:33:44;;;;;;;12.30;4.40;;;;;;;9.67;63.06;97696.61;107191;1275;22761;-88
2023/10/15 10:36:15;;;;;;;8.30;4.60;;;;;;;9.68;62.94;97698.42;108009;1272;22629;-85
2023/10/15 10:38:52;;;;;;;9.80;4.30;;;;;;;9.65;62.97;97693.30;109014;1272;22998;-86
2023/10/15 10:41:20;;;;;;;12.10;4.60;;;;;;;9.62;62.65;97695.29;107626;1276;22568;-87
2023/10/15 10:43:54;;;;;;;11.60;4.70;;;;;;;9.61;62.68;97689.30;107345;1276;22584;-86
2023/10/15 10:46:43;;;;;;;9.30;4.80;;;;;;;9.60;62.61;97687.48;107448;1276;22581;-86
2023/10/15 10:49:18;;;;;;;11.30;5.40;;;;;;;9.61;63.13;97682.40;107516;1276;23349;-85
2023/10/15 10:52:15;;;;;;;12.60;4.80;;;;;;;9.67;63.11;97674.38;107831;1270;26572;-86
2023/10/15 10:54:45;;;;;;;11.30;4.80;;;;;;;9.68;62.77;97671.64;107930;1273;22538;-85
2023/10/15 10:57:18;;;;;;;9.60;4.30;;;;;;;9.71;63.01;97670.06;107799;1276;22477;-85
2023/10/15 10:59:47;;;;;;;11.50;5.00;;;;;;;9.73;62.81;97670.02;107428;1276;22585;-86
2023/10/15 11:02:16;;;;;;;12.00;5.30;;;;;;;9.78;63.26;97664.28;107288;1275;22530;-86
2023/10/15 11:04:47;;;;;;;8.50;4.20;;;;;;;9.83;62.87;97667.30;107276;1276;25406;-84
2023/10/15 11:07:16;;;;;;;10.80;4.80;;;;;;;9.83;63.18;97673.31;107879;1270;22606;-85
2023/10/15 11:09:44;;;;;;;10.30;5.30;;;;;;;9.85;62.19;97669.15;109653;1276;22905;-84
2023/10/15 11:12:14;;;;;;;9.40;4.10;;;;;;;9.92;62.51;97666.63;109201;1276;22513;-84
2023/10/15 11:14:42;;;;;;;7.80;4.60;;;;;;;10.04;62.33;97665.59;109918;1276;25236;-84
2023/10/15 11:17:10;;;;;;;9.60;3.90;;;;;;;10.14;61.95;97667.59;108044;1276;24202;-84
2023/10/15 11:19:39;;;;;;;9.90;4.60;;;;;;;10.17;60.95;97662.63;107246;1276;25353;-83
2023/10/15 11:22:08;;;;;;;6.40;3.70;;;;;;;10.16;61.04;97653.39;107220;1276;24233;-85
2023/10/15 11:24:37;;;;;;;7.00;3.80;;;;;;;10.14;61.16;97655.59;107097;1276;25278;-85
2023/10/15 11:27:07;;;;;;;7.90;4.10;;;;;;;10.10;61.68;97657.92;107128;1276;24265;-85
2023/10/15 11:29:35;;;;;;;6.90;4.30;;;;;;;10.06;61.91;97657.52;106997;1276;22556;-86
2023/10/15 11:32:11;;;;;;;7.60;4.40;;;;;;;10.06;62.21;97647.20;107184;1270;24307;-86
2023/10/15 11:34:39;;;;;;;8.70;4.80;;;;;;;10.07;62.95;97645.95;107128;1272;22524;-86
2023/10/15 11:37:09;;;;;;;8.70;4.20;;;;;;;10.08;62.83;97648.61;107263;1271;22548;-87
2023/10/15 11:39:37;;;;;;;10.30;4.90;;;;;;;10.07;63.16;97641.35;107283;1269;22632;-85
2023/10/15 11:42:07;;;;;;;10.90;4.40;;;;;;;10.05;62.56;97647.30;107186;1269;25356;-84
2023/10/15 11:44:37;;;;;;;8.90;4.70;;;;;;;10.05;62.86;97640.48;107165;1272;24382;-85
2023/10/15 11:47:12;;;;;;;7.90;4.90;;;;;;;10.11;63.60;97636.39;107283;1270;22611;-85
2023/10/15 11:49:42;;;;;;;8.40;4.60;;;;;;;10.18;63.61;97636.88;107285;1269;24259;-84
2023/10/15 11:52:18;;;;;;;9.70;4.70;;;;;;;10.24;63.94;97634.00;107230;1269;24330;-86
2023/10/15 11:54:50;;;;;;;9.70;4.90;;;;;;;10.31;63.83;97628.42;107335;1269;22653;-86
2023/10/15 11:57:26;;;;;;;10.20;4.80;;;;;;;10.32;63.81;97635.04;107203;1276;22741;-85
2023/10/15 11:59:56;;;;;;;10.00;5.10;;;;;;;10.31;63.80;97626.54;107212;1276;23853;-86